createdAt,value
2023-06-18T00:00:25.440Z,32.35
2023-06-18T00:00:55.273Z,32.38
2023-06-18T00:01:25.315Z,32.36
2023-06-18T00:01:55.329Z,32.38
2023-06-18T00:02:25.356Z,32.36
2023-06-18T00:02:55.410Z,32.33
2023-06-18T00:03:25.484Z,32.38
2023-06-18T00:03:55.581Z,32.36
2023-06-18T00:04:25.507Z,32.36
2023-06-18T00:05:25.609Z,32.36
2023-06-18T00:05:55.621Z,32.38
2023-06-18T00:06:25.618Z,32.33
2023-06-18T00:06:55.641Z,32.35
2023-06-18T00:07:25.629Z,32.36
2023-06-18T00:07:55.637Z,32.33
2023-06-18T00:08:25.648Z,32.35
2023-06-18T00:08:55.682Z,32.33
2023-06-18T00:09:25.680Z,32.33
2023-06-18T00:09:55.700Z,32.33
2023-06-18T00:10:25.708Z,32.33
2023-06-18T00:10:55.712Z,32.33
2023-06-18T00:11:25.697Z,32.35
2023-06-18T00:12:25.805Z,32.35
2023-06-18T00:12:55.824Z,32.36
2023-06-18T00:13:25.856Z,32.33
2023-06-18T00:13:55.856Z,32.35
2023-06-18T00:14:25.889Z,32.32
2023-06-18T00:14:55.893Z,32.32
2023-06-18T00:15:25.896Z,32.35
2023-06-18T00:15:56.015Z,32.32
2023-06-18T00:16:26.142Z,32.33
2023-06-18T00:16:56.076Z,32.35
2023-06-18T00:17:26.188Z,32.33
2023-06-18T00:17:56.360Z,32.32
2023-06-18T00:18:26.332Z,32.33
2023-06-18T00:18:56.424Z,32.33
2023-06-18T00:19:26.506Z,32.32
2023-06-18T00:19:56.606Z,32.29
2023-06-18T00:20:26.660Z,32.30
2023-06-18T00:20:56.753Z,32.30
2023-06-18T00:21:26.741Z,32.32
2023-06-18T00:21:56.844Z,32.30
2023-06-18T00:22:26.942Z,32.30
2023-06-18T00:22:56.936Z,32.29
2023-06-18T00:23:27.021Z,32.29
2023-06-18T00:23:57.107Z,32.32
2023-06-18T00:24:27.200Z,32.29
2023-06-18T00:24:57.178Z,32.29
2023-06-18T00:25:27.270Z,32.32
2023-06-18T00:25:57.373Z,32.29
2023-06-18T00:26:27.368Z,32.32
2023-06-18T00:26:57.397Z,32.32
2023-06-18T00:27:27.410Z,32.30
2023-06-18T00:27:57.415Z,32.30
2023-06-18T00:28:27.418Z,32.29
2023-06-18T00:28:57.441Z,32.28
2023-06-18T00:29:27.437Z,32.29
2023-06-18T00:29:57.476Z,32.32
2023-06-18T00:30:27.481Z,32.29
2023-06-18T00:30:57.501Z,32.28
2023-06-18T00:31:27.525Z,32.30
2023-06-18T00:31:57.604Z,32.29
2023-06-18T00:32:27.702Z,32.28
2023-06-18T00:32:57.761Z,32.28
2023-06-18T00:33:27.733Z,32.28
2023-06-18T00:33:57.750Z,32.30
2023-06-18T00:34:27.744Z,32.28
2023-06-18T00:34:57.761Z,32.26
2023-06-18T00:35:27.760Z,32.26
2023-06-18T00:35:57.764Z,32.25
2023-06-18T00:36:27.951Z,32.26
2023-06-18T00:36:57.842Z,32.23
2023-06-18T00:37:27.861Z,32.25
2023-06-18T00:37:57.862Z,32.26
2023-06-18T00:38:27.864Z,32.26
2023-06-18T00:38:57.883Z,32.25
2023-06-18T00:39:27.887Z,32.26
2023-06-18T00:39:57.907Z,32.26
2023-06-18T00:40:27.915Z,32.25
2023-06-18T00:40:57.962Z,32.25
2023-06-18T00:41:27.977Z,32.23
2023-06-18T00:41:57.994Z,32.23
2023-06-18T00:42:28.000Z,32.26
2023-06-18T00:42:58.012Z,32.22
2023-06-18T00:43:28.010Z,32.23
2023-06-18T00:43:58.043Z,32.23
2023-06-18T00:44:28.068Z,32.25
2023-06-18T00:44:58.057Z,32.26
2023-06-18T00:45:28.107Z,32.23
2023-06-18T00:45:58.112Z,32.23
2023-06-18T00:46:58.210Z,32.23
2023-06-18T00:47:28.381Z,32.23
2023-06-18T00:47:58.299Z,32.21
2023-06-18T00:48:28.238Z,32.25
2023-06-18T00:48:58.230Z,32.21
2023-06-18T00:49:28.244Z,32.21
2023-06-18T00:49:58.242Z,32.22
2023-06-18T00:50:28.260Z,32.23
2023-06-18T00:50:58.273Z,32.22
2023-06-18T00:51:28.285Z,32.23
2023-06-18T00:51:58.293Z,32.22
2023-06-18T00:52:28.294Z,32.23
2023-06-18T00:52:58.301Z,32.22
2023-06-18T00:53:28.312Z,32.21
2023-06-18T00:53:58.326Z,32.22
2023-06-18T00:54:28.327Z,32.22
2023-06-18T00:54:58.365Z,32.19
2023-06-18T00:55:28.377Z,32.21
2023-06-18T00:55:58.393Z,32.22
2023-06-18T00:56:28.396Z,32.21
2023-06-18T00:56:58.425Z,32.21
2023-06-18T00:57:28.414Z,32.19
2023-06-18T00:58:28.493Z,32.21
2023-06-18T00:58:58.812Z,32.21
2023-06-18T00:59:28.525Z,32.19
2023-06-18T00:59:58.551Z,32.19
2023-06-18T01:00:28.552Z,32.18
2023-06-18T01:00:58.581Z,32.18
2023-06-18T01:01:28.607Z,32.18
2023-06-18T01:01:58.667Z,32.18
2023-06-18T01:02:31.117Z,32.16
2023-06-18T01:02:58.701Z,32.16
2023-06-18T01:03:28.700Z,32.19
2023-06-18T01:04:01.025Z,32.18
2023-06-18T01:04:28.929Z,32.16
2023-06-18T01:04:58.770Z,32.15
2023-06-18T01:05:28.832Z,32.16
2023-06-18T01:05:58.919Z,32.16
2023-06-18T01:06:29.000Z,32.16
2023-06-18T01:06:59.000Z,32.15
2023-06-18T01:07:30.467Z,32.16
2023-06-18T01:07:59.195Z,32.14
2023-06-18T01:08:29.227Z,32.16
2023-06-18T01:08:59.265Z,32.18
2023-06-18T01:09:29.295Z,32.15
2023-06-18T01:09:59.294Z,32.16
2023-06-18T01:10:29.296Z,32.15
2023-06-18T01:10:59.306Z,32.18
2023-06-18T01:11:29.320Z,32.16
2023-06-18T01:11:59.311Z,32.15
2023-06-18T01:12:29.377Z,32.15
2023-06-18T01:12:59.374Z,32.14
2023-06-18T01:13:29.391Z,32.16
2023-06-18T01:13:59.406Z,32.15
2023-06-18T01:14:29.400Z,32.15
2023-06-18T01:14:59.448Z,32.14
2023-06-18T01:15:29.478Z,32.14
2023-06-18T01:15:59.578Z,32.14
2023-06-18T01:16:29.827Z,32.14
2023-06-18T01:16:59.787Z,32.12
2023-06-18T01:17:59.801Z,32.15
2023-06-18T01:18:29.770Z,32.14
2023-06-18T01:18:59.853Z,32.14
2023-06-18T01:19:29.928Z,32.12
2023-06-18T01:20:00.017Z,32.12
2023-06-18T01:20:30.099Z,32.12
2023-06-18T01:21:00.199Z,32.11
2023-06-18T01:21:30.276Z,32.12
2023-06-18T01:22:00.373Z,32.12
2023-06-18T01:22:30.463Z,32.12
2023-06-18T01:23:00.567Z,32.11
2023-06-18T01:23:30.657Z,32.11
2023-06-18T01:24:00.757Z,32.08
2023-06-18T01:24:30.768Z,32.10
2023-06-18T01:25:00.841Z,32.11
2023-06-18T01:25:30.935Z,32.11
2023-06-18T01:26:00.919Z,32.11
2023-06-18T01:26:30.920Z,32.10
2023-06-18T01:27:00.930Z,32.11
2023-06-18T01:27:30.939Z,32.12
2023-06-18T01:28:00.945Z,32.11
2023-06-18T01:28:30.964Z,32.10
2023-06-18T01:29:00.949Z,32.11
2023-06-18T01:29:30.950Z,32.08
2023-06-18T01:30:00.962Z,32.10
2023-06-18T01:30:30.961Z,32.10
2023-06-18T01:31:00.965Z,32.10
2023-06-18T01:31:31.032Z,32.07
2023-06-18T01:32:01.086Z,32.07
2023-06-18T01:32:31.113Z,32.10
2023-06-18T01:33:01.186Z,32.11
2023-06-18T01:33:31.177Z,32.10
2023-06-18T01:34:01.183Z,32.08
2023-06-18T01:34:31.199Z,32.08
2023-06-18T01:35:01.199Z,32.07
2023-06-18T01:35:31.195Z,32.05
2023-06-18T01:36:01.214Z,32.08
2023-06-18T01:36:31.233Z,32.07
2023-06-18T01:37:01.257Z,32.07
2023-06-18T01:37:31.265Z,32.08
2023-06-18T01:38:01.265Z,32.05
2023-06-18T01:38:31.279Z,32.05
2023-06-18T01:39:01.267Z,32.07
2023-06-18T01:39:31.280Z,32.05
2023-06-18T01:40:01.288Z,32.07
2023-06-18T01:40:31.296Z,32.04
2023-06-18T01:41:01.307Z,32.05
2023-06-18T01:41:31.329Z,32.05
2023-06-18T01:42:01.342Z,32.05
2023-06-18T01:42:31.342Z,32.05
2023-06-18T01:43:01.347Z,32.05
2023-06-18T01:43:31.350Z,32.05
2023-06-18T01:44:01.384Z,32.07
2023-06-18T01:44:31.478Z,32.07
2023-06-18T01:45:01.475Z,32.05
2023-06-18T01:45:31.471Z,32.07
2023-06-18T01:46:01.499Z,32.02
2023-06-18T01:46:31.561Z,32.04
2023-06-18T01:47:01.529Z,32.04
2023-06-18T01:47:31.571Z,32.02
2023-06-18T01:48:01.634Z,32.04
2023-06-18T01:48:31.683Z,32.05
2023-06-18T01:49:01.698Z,32.04
2023-06-18T01:49:31.693Z,32.04
2023-06-18T01:50:01.704Z,32.05
2023-06-18T01:50:31.714Z,32.04
2023-06-18T01:51:01.765Z,32.04
2023-06-18T01:51:31.764Z,32.02
2023-06-18T01:52:01.767Z,32.01
2023-06-18T01:52:31.773Z,32.02
2023-06-18T01:53:01.774Z,32.02
2023-06-18T01:53:31.782Z,32.01
2023-06-18T01:54:01.827Z,32.02
2023-06-18T01:54:31.805Z,32.02
2023-06-18T01:55:01.831Z,31.99
2023-06-18T01:55:31.846Z,31.99
2023-06-18T01:56:01.869Z,32.02
2023-06-18T01:56:31.852Z,32.01
2023-06-18T01:57:01.857Z,32.02
2023-06-18T01:57:31.854Z,32.01
2023-06-18T01:58:01.865Z,31.99
2023-06-18T01:58:31.876Z,32.01
2023-06-18T01:59:01.879Z,32.01
2023-06-18T01:59:31.900Z,31.99
2023-06-18T02:00:01.920Z,31.99
2023-06-18T02:00:31.930Z,31.99
2023-06-18T02:01:01.938Z,31.98
2023-06-18T02:01:31.941Z,31.99
2023-06-18T02:02:01.954Z,31.95
2023-06-18T02:02:32.019Z,31.98
2023-06-18T02:03:02.083Z,31.96
2023-06-18T02:03:32.152Z,31.98
2023-06-18T02:04:02.151Z,31.96
2023-06-18T02:04:32.132Z,31.95
2023-06-18T02:05:02.138Z,31.96
2023-06-18T02:05:32.145Z,31.96
2023-06-18T02:06:02.178Z,31.95
2023-06-18T02:06:32.171Z,31.96
2023-06-18T02:07:02.183Z,31.96
2023-06-18T02:07:32.175Z,31.95
2023-06-18T02:08:02.187Z,31.94
2023-06-18T02:08:32.188Z,31.94
2023-06-18T02:09:02.231Z,31.92
2023-06-18T02:09:32.228Z,31.95
2023-06-18T02:10:02.245Z,31.95
2023-06-18T02:10:32.245Z,31.94
2023-06-18T02:11:02.257Z,31.95
2023-06-18T02:11:32.258Z,31.94
2023-06-18T02:12:02.301Z,31.94
2023-06-18T02:12:32.274Z,31.95
2023-06-18T02:13:02.291Z,31.94
2023-06-18T02:13:32.372Z,31.94
2023-06-18T02:14:02.378Z,31.95
2023-06-18T02:14:32.410Z,31.96
2023-06-18T02:15:02.406Z,31.94
2023-06-18T02:15:32.416Z,31.94
2023-06-18T02:16:02.581Z,31.94
2023-06-18T02:16:32.605Z,31.94
2023-06-18T02:17:02.592Z,31.92
2023-06-18T02:17:32.702Z,31.92
2023-06-18T02:18:02.796Z,31.92
2023-06-18T02:18:33.157Z,31.92
2023-06-18T02:19:02.874Z,31.92
2023-06-18T02:19:32.963Z,31.94
2023-06-18T02:20:03.039Z,31.92
2023-06-18T02:20:33.140Z,31.91
2023-06-18T02:21:03.223Z,31.95
2023-06-18T02:21:33.302Z,31.95
2023-06-18T02:22:03.377Z,31.94
2023-06-18T02:22:33.470Z,31.91
2023-06-18T02:23:03.556Z,31.91
2023-06-18T02:23:33.717Z,31.91
2023-06-18T02:24:03.726Z,31.89
2023-06-18T02:25:03.708Z,31.94
2023-06-18T02:25:33.793Z,31.89
2023-06-18T02:26:03.798Z,31.91
2023-06-18T02:26:33.804Z,31.89
2023-06-18T02:27:03.820Z,31.88
2023-06-18T02:27:33.825Z,31.88
2023-06-18T02:28:03.826Z,31.89
2023-06-18T02:28:33.840Z,31.88
2023-06-18T02:29:03.844Z,31.88
2023-06-18T02:29:33.840Z,31.91
2023-06-18T02:30:03.862Z,31.88
2023-06-18T02:30:33.897Z,31.87
2023-06-18T02:31:03.908Z,31.88
2023-06-18T02:31:33.908Z,31.87
2023-06-18T02:32:34.081Z,31.91
2023-06-18T02:33:04.171Z,31.88
2023-06-18T02:33:34.073Z,31.87
2023-06-18T02:34:04.105Z,31.87
2023-06-18T02:34:34.090Z,31.87
2023-06-18T02:35:04.116Z,31.87
2023-06-18T02:35:34.105Z,31.87
2023-06-18T02:36:04.128Z,31.87
2023-06-18T02:36:34.130Z,31.85
2023-06-18T02:37:04.132Z,31.84
2023-06-18T02:37:34.152Z,31.85
2023-06-18T02:38:04.148Z,31.87
2023-06-18T02:38:34.181Z,31.91
2023-06-18T02:39:04.176Z,31.89
2023-06-18T02:39:34.189Z,31.88
2023-06-18T02:40:04.183Z,31.85
2023-06-18T02:40:34.200Z,31.89
2023-06-18T02:41:04.215Z,31.87
2023-06-18T02:41:34.225Z,31.85
2023-06-18T02:42:04.238Z,31.85
2023-06-18T02:42:34.274Z,31.85
2023-06-18T02:43:04.278Z,31.85
2023-06-18T02:43:34.289Z,31.84
2023-06-18T02:44:04.283Z,31.84
2023-06-18T02:44:34.291Z,31.87
2023-06-18T02:45:04.331Z,31.84
2023-06-18T02:45:34.330Z,31.88
2023-06-18T02:46:04.341Z,31.87
2023-06-18T02:46:34.385Z,31.85
2023-06-18T02:47:04.399Z,31.84
2023-06-18T02:47:34.579Z,31.85
2023-06-18T02:48:04.502Z,31.85
2023-06-18T02:48:34.528Z,31.85
2023-06-18T02:49:04.536Z,31.85
2023-06-18T02:49:34.574Z,31.85
2023-06-18T02:50:04.561Z,31.83
2023-06-18T02:50:34.568Z,31.83
2023-06-18T02:51:04.607Z,31.83
2023-06-18T02:51:34.606Z,31.81
2023-06-18T02:52:04.626Z,31.83
2023-06-18T02:52:34.639Z,31.84
2023-06-18T02:53:04.638Z,31.83
2023-06-18T02:53:34.652Z,31.80
2023-06-18T02:54:04.651Z,31.81
2023-06-18T02:54:34.666Z,31.83
2023-06-18T02:55:04.697Z,31.83
2023-06-18T02:55:34.708Z,31.83
2023-06-18T02:56:04.727Z,31.85
2023-06-18T02:56:34.720Z,31.81
2023-06-18T02:57:04.757Z,31.83
2023-06-18T02:57:34.748Z,31.81
2023-06-18T02:58:04.755Z,31.80
2023-06-18T02:58:34.764Z,31.81
2023-06-18T02:59:04.767Z,31.80
2023-06-18T02:59:34.773Z,31.80
2023-06-18T03:00:04.782Z,31.81
2023-06-18T03:00:34.806Z,31.80
2023-06-18T03:01:04.849Z,31.81
2023-06-18T03:01:35.445Z,31.81
2023-06-18T03:02:04.879Z,31.78
2023-06-18T03:02:34.890Z,31.78
2023-06-18T03:03:04.894Z,31.81
2023-06-18T03:03:34.895Z,31.78
2023-06-18T03:04:04.983Z,31.78
2023-06-18T03:04:35.053Z,31.80
2023-06-18T03:05:05.122Z,31.77
2023-06-18T03:05:35.153Z,31.78
2023-06-18T03:06:05.173Z,31.78
2023-06-18T03:06:35.210Z,31.80
2023-06-18T03:07:05.225Z,31.78
2023-06-18T03:07:35.216Z,31.77
2023-06-18T03:08:35.294Z,31.74
2023-06-18T03:09:05.299Z,31.77
2023-06-18T03:09:35.316Z,31.77
2023-06-18T03:10:05.311Z,31.80
2023-06-18T03:11:05.403Z,31.75
2023-06-18T03:11:35.443Z,31.77
2023-06-18T03:12:05.491Z,31.77
2023-06-18T03:12:35.461Z,31.74
2023-06-18T03:13:05.491Z,31.74
2023-06-18T03:13:35.482Z,31.73
2023-06-18T03:14:05.522Z,31.77
2023-06-18T03:14:35.515Z,31.75
2023-06-18T03:15:05.512Z,31.77
2023-06-18T03:15:35.529Z,31.74
2023-06-18T03:16:05.633Z,31.74
2023-06-18T03:16:35.678Z,31.73
2023-06-18T03:17:05.696Z,31.74
2023-06-18T03:17:35.724Z,31.73
2023-06-18T03:18:05.856Z,31.74
2023-06-18T03:18:35.888Z,31.75
2023-06-18T03:19:05.959Z,31.75
2023-06-18T03:19:36.071Z,31.75
2023-06-18T03:20:06.160Z,31.74
2023-06-18T03:20:36.265Z,31.73
2023-06-18T03:21:06.321Z,31.73
2023-06-18T03:21:36.400Z,31.74
2023-06-18T03:22:06.492Z,31.74
2023-06-18T03:22:36.583Z,31.74
2023-06-18T03:23:06.655Z,31.74
2023-06-18T03:23:36.759Z,31.75
2023-06-18T03:24:06.860Z,31.73
2023-06-18T03:24:36.881Z,31.73
2023-06-18T03:25:06.929Z,31.73
2023-06-18T03:25:36.924Z,31.71
2023-06-18T03:26:06.930Z,31.73
2023-06-18T03:26:36.949Z,31.71
2023-06-18T03:27:06.950Z,31.71
2023-06-18T03:27:36.979Z,31.73
2023-06-18T03:28:07.016Z,31.71
2023-06-18T03:28:37.034Z,31.71
2023-06-18T03:29:07.034Z,31.73
2023-06-18T03:29:37.029Z,31.71
2023-06-18T03:30:07.043Z,31.71
2023-06-18T03:30:37.046Z,31.73
2023-06-18T03:31:07.047Z,31.70
2023-06-18T03:31:37.054Z,31.73
2023-06-18T03:32:07.066Z,31.71
2023-06-18T03:32:37.126Z,31.71
2023-06-18T03:33:07.262Z,31.70
2023-06-18T03:33:37.102Z,31.71
2023-06-18T03:34:37.133Z,31.70
2023-06-18T03:35:07.224Z,31.70
2023-06-18T03:35:37.247Z,31.68
2023-06-18T03:36:07.276Z,31.73
2023-06-18T03:36:37.252Z,31.70
2023-06-18T03:37:37.351Z,31.68
2023-06-18T03:38:07.355Z,31.70
2023-06-18T03:38:37.362Z,31.71
2023-06-18T03:39:07.364Z,31.71
2023-06-18T03:39:37.369Z,31.70
2023-06-18T03:40:07.388Z,31.68
2023-06-18T03:40:37.382Z,31.70
2023-06-18T03:41:37.468Z,31.70
2023-06-18T03:42:07.486Z,31.68
2023-06-18T03:42:37.495Z,31.70
2023-06-18T03:43:07.518Z,31.70
2023-06-18T03:43:37.514Z,31.67
2023-06-18T03:44:07.565Z,31.68
2023-06-18T03:44:37.545Z,31.70
2023-06-18T03:45:07.555Z,31.67
2023-06-18T03:45:37.561Z,31.68
2023-06-18T03:46:07.600Z,31.68
2023-06-18T03:46:37.762Z,31.68
2023-06-18T03:47:07.693Z,31.68
2023-06-18T03:47:37.799Z,31.68
2023-06-18T03:48:07.814Z,31.66
2023-06-18T03:48:37.797Z,31.67
2023-06-18T03:49:07.697Z,31.67
2023-06-18T03:49:37.706Z,31.68
2023-06-18T03:50:07.712Z,31.66
2023-06-18T03:50:37.719Z,31.66
2023-06-18T03:51:07.739Z,31.64
2023-06-18T03:51:37.756Z,31.68
2023-06-18T03:52:07.747Z,31.64
2023-06-18T03:52:37.754Z,31.66
2023-06-18T03:53:09.506Z,31.66
2023-06-18T03:53:37.814Z,31.64
2023-06-18T03:54:07.824Z,31.66
2023-06-18T03:54:37.824Z,31.63
2023-06-18T03:55:07.827Z,31.64
2023-06-18T03:56:07.928Z,31.64
2023-06-18T03:56:37.943Z,31.64
2023-06-18T03:57:07.948Z,31.63
2023-06-18T03:57:37.947Z,31.61
2023-06-18T03:58:07.966Z,31.64
2023-06-18T03:58:37.966Z,31.61
2023-06-18T03:59:07.967Z,31.63
2023-06-18T03:59:38.029Z,31.63
2023-06-18T04:00:08.036Z,31.61
2023-06-18T04:00:38.042Z,31.63
2023-06-18T04:01:08.083Z,31.63
2023-06-18T04:01:38.080Z,31.60
2023-06-18T04:02:08.076Z,31.60
2023-06-18T04:02:38.115Z,31.61
2023-06-18T04:03:08.234Z,31.61
2023-06-18T04:03:38.365Z,31.60
2023-06-18T04:04:08.289Z,31.61
2023-06-18T04:04:38.295Z,31.60
2023-06-18T04:05:08.317Z,31.60
2023-06-18T04:05:38.329Z,31.60
2023-06-18T04:06:08.359Z,31.61
2023-06-18T04:06:38.354Z,31.59
2023-06-18T04:07:08.371Z,31.60
2023-06-18T04:07:38.355Z,31.60
2023-06-18T04:08:08.389Z,31.63
2023-06-18T04:08:38.396Z,31.59
2023-06-18T04:09:08.395Z,31.61
2023-06-18T04:09:38.412Z,31.57
2023-06-18T04:10:08.437Z,31.61
2023-06-18T04:10:38.435Z,31.60
2023-06-18T04:11:08.493Z,31.59
2023-06-18T04:11:38.496Z,31.63
2023-06-18T04:12:08.486Z,31.59
2023-06-18T04:12:38.506Z,31.59
2023-06-18T04:13:08.496Z,31.61
2023-06-18T04:13:38.514Z,31.60
2023-06-18T04:14:08.525Z,31.60
2023-06-18T04:14:38.554Z,31.61
2023-06-18T04:15:08.581Z,31.59
2023-06-18T04:15:38.571Z,31.60
2023-06-18T04:16:08.648Z,31.60
2023-06-18T04:16:38.735Z,31.59
2023-06-18T04:17:08.854Z,31.57
2023-06-18T04:17:38.980Z,31.60
2023-06-18T04:18:08.978Z,31.59
2023-06-18T04:18:39.046Z,31.59
2023-06-18T04:19:09.134Z,31.59
2023-06-18T04:19:39.235Z,31.61
2023-06-18T04:20:09.381Z,31.60
2023-06-18T04:20:39.370Z,31.60
2023-06-18T04:21:09.459Z,31.59
2023-06-18T04:21:39.544Z,31.59
2023-06-18T04:22:09.625Z,31.57
2023-06-18T04:22:39.738Z,31.57
2023-06-18T04:23:09.797Z,31.59
2023-06-18T04:23:39.888Z,31.59
2023-06-18T04:24:09.997Z,31.57
2023-06-18T04:24:40.064Z,31.60
2023-06-18T04:25:10.058Z,31.59
2023-06-18T04:25:40.150Z,31.57
2023-06-18T04:26:10.180Z,31.56
2023-06-18T04:26:40.188Z,31.57
2023-06-18T04:27:10.183Z,31.56
2023-06-18T04:27:40.194Z,31.56
2023-06-18T04:28:10.192Z,31.56
2023-06-18T04:28:40.203Z,31.56
2023-06-18T04:29:10.212Z,31.57
2023-06-18T04:29:40.215Z,31.56
2023-06-18T04:30:10.225Z,31.57
2023-06-18T04:30:40.220Z,31.57
2023-06-18T04:31:40.324Z,31.54
2023-06-18T04:32:10.332Z,31.56
2023-06-18T04:32:40.362Z,31.57
2023-06-18T04:33:10.382Z,31.54
2023-06-18T04:33:40.381Z,31.56
2023-06-18T04:34:10.406Z,31.57
2023-06-18T04:34:40.402Z,31.56
2023-06-18T04:35:10.421Z,31.57
2023-06-18T04:35:40.401Z,31.56
2023-06-18T04:36:10.403Z,31.57
2023-06-18T04:36:40.419Z,31.59
2023-06-18T04:37:10.427Z,31.57
2023-06-18T04:37:40.439Z,31.57
2023-06-18T04:38:10.482Z,31.57
2023-06-18T04:38:40.684Z,31.56
2023-06-18T04:39:10.566Z,31.56
2023-06-18T04:39:40.570Z,31.57
2023-06-18T04:40:10.581Z,31.57
2023-06-18T04:40:40.598Z,31.56
2023-06-18T04:41:10.606Z,31.56
2023-06-18T04:41:40.599Z,31.57
2023-06-18T04:42:10.606Z,31.57
2023-06-18T04:42:40.617Z,31.54
2023-06-18T04:43:10.633Z,31.56
2023-06-18T04:43:40.633Z,31.56
2023-06-18T04:44:40.720Z,31.54
2023-06-18T04:45:10.759Z,31.54
2023-06-18T04:45:40.750Z,31.56
2023-06-18T04:46:10.745Z,31.53
2023-06-18T04:46:40.815Z,31.54
2023-06-18T04:47:10.922Z,31.54
2023-06-18T04:47:40.955Z,31.53
2023-06-18T04:48:10.961Z,31.51
2023-06-18T04:48:40.981Z,31.51
2023-06-18T04:49:10.968Z,31.53
2023-06-18T04:49:40.973Z,31.54
2023-06-18T04:50:11.000Z,31.54
2023-06-18T04:50:40.971Z,31.54
2023-06-18T04:51:10.985Z,31.56
2023-06-18T04:51:41.004Z,31.57
2023-06-18T04:52:11.032Z,31.56
2023-06-18T04:52:41.055Z,31.56
2023-06-18T04:53:11.051Z,31.54
2023-06-18T04:53:41.081Z,31.56
2023-06-18T04:54:11.067Z,31.53
2023-06-18T04:55:11.167Z,31.56
2023-06-18T04:55:41.147Z,31.53
2023-06-18T04:56:11.153Z,31.54
2023-06-18T04:56:41.180Z,31.53
2023-06-18T04:57:11.183Z,31.54
2023-06-18T04:57:41.188Z,31.56
2023-06-18T04:58:11.205Z,31.53
2023-06-18T04:58:41.198Z,31.53
2023-06-18T04:59:11.213Z,31.53
2023-06-18T04:59:41.210Z,31.54
2023-06-18T05:00:11.226Z,31.53
2023-06-18T05:00:41.258Z,31.56
2023-06-18T05:01:11.265Z,31.54
2023-06-18T05:01:41.277Z,31.53
2023-06-18T05:02:11.274Z,31.51
2023-06-18T05:02:41.339Z,31.51
2023-06-18T05:03:11.413Z,31.54
2023-06-18T05:03:41.404Z,31.53
2023-06-18T05:04:11.509Z,31.53
2023-06-18T05:04:41.477Z,31.51
2023-06-18T05:05:11.587Z,31.51
2023-06-18T05:05:41.591Z,31.53
2023-06-18T05:06:11.595Z,31.53
2023-06-18T05:06:41.601Z,31.53
2023-06-18T05:07:11.609Z,31.53
2023-06-18T05:07:41.609Z,31.51
2023-06-18T05:08:11.617Z,31.51
2023-06-18T05:08:41.617Z,31.51
2023-06-18T05:09:11.648Z,31.53
2023-06-18T05:09:41.626Z,31.51
2023-06-18T05:10:41.672Z,31.54
2023-06-18T05:11:11.670Z,31.51
2023-06-18T05:11:41.675Z,31.53
2023-06-18T05:12:11.686Z,31.51
2023-06-18T05:12:41.683Z,31.50
2023-06-18T05:13:11.688Z,31.53
2023-06-18T05:14:11.787Z,31.51
2023-06-18T05:14:41.787Z,31.51
2023-06-18T05:15:11.818Z,31.50
2023-06-18T05:15:41.811Z,31.51
2023-06-18T05:16:12.042Z,31.51
2023-06-18T05:16:42.014Z,31.53
2023-06-18T05:17:12.040Z,31.51
2023-06-18T05:17:42.064Z,31.51
2023-06-18T05:18:12.155Z,31.50
2023-06-18T05:18:42.160Z,31.53
2023-06-18T05:19:12.252Z,31.53
2023-06-18T05:19:42.341Z,31.51
2023-06-18T05:20:12.429Z,31.56
2023-06-18T05:20:42.523Z,31.53
2023-06-18T05:21:12.605Z,31.53
2023-06-18T05:21:42.696Z,31.53
2023-06-18T05:22:12.785Z,31.50
2023-06-18T05:22:42.886Z,31.50
2023-06-18T05:23:12.967Z,31.54
2023-06-18T05:23:43.039Z,31.53
2023-06-18T05:24:13.129Z,31.56
2023-06-18T05:24:43.151Z,31.56
2023-06-18T05:25:13.220Z,31.54
2023-06-18T05:25:43.306Z,31.53
2023-06-18T05:26:13.315Z,31.54
2023-06-18T05:26:43.329Z,31.54
2023-06-18T05:27:13.397Z,31.54
2023-06-18T05:27:43.379Z,31.56
2023-06-18T05:28:13.377Z,31.54
2023-06-18T05:28:43.398Z,31.53
2023-06-18T05:29:13.418Z,31.54
2023-06-18T05:29:43.458Z,31.53
2023-06-18T05:30:13.442Z,31.53
2023-06-18T05:30:43.438Z,31.54
2023-06-18T05:31:13.450Z,31.53
2023-06-18T05:31:43.463Z,31.51
2023-06-18T05:32:14.667Z,31.51
2023-06-18T05:32:43.515Z,31.53
2023-06-18T05:33:13.543Z,31.54
2023-06-18T05:33:43.538Z,31.53
2023-06-18T05:34:13.551Z,31.54
2023-06-18T05:34:43.556Z,31.54
2023-06-18T05:35:13.569Z,31.54
2023-06-18T05:35:43.565Z,31.54
2023-06-18T05:36:13.584Z,31.54
2023-06-18T05:36:43.602Z,31.54
2023-06-18T05:37:13.601Z,31.54
2023-06-18T05:37:43.615Z,31.56
2023-06-18T05:38:13.621Z,31.54
2023-06-18T05:38:43.643Z,31.57
2023-06-18T05:39:13.644Z,31.54
2023-06-18T05:39:43.652Z,31.56
2023-06-18T05:40:13.680Z,31.56
2023-06-18T05:40:43.663Z,31.54
2023-06-18T05:41:43.746Z,31.57
2023-06-18T05:42:13.763Z,31.56
2023-06-18T05:42:43.794Z,31.57
2023-06-18T05:43:13.806Z,31.57
2023-06-18T05:43:43.796Z,31.60
2023-06-18T05:44:13.809Z,31.59
2023-06-18T05:44:43.807Z,31.61
2023-06-18T05:45:13.825Z,31.63
2023-06-18T05:45:43.897Z,31.66
2023-06-18T05:46:13.927Z,31.63
2023-06-18T05:46:43.941Z,31.66
2023-06-18T05:47:13.985Z,31.66
2023-06-18T05:47:44.042Z,31.67
2023-06-18T05:48:14.019Z,31.66
2023-06-18T05:48:44.020Z,31.70
2023-06-18T05:49:14.032Z,31.71
2023-06-18T05:49:44.053Z,31.73
2023-06-18T05:50:14.052Z,31.73
2023-06-18T05:50:44.052Z,31.73
2023-06-18T05:51:44.134Z,31.68
2023-06-18T05:52:14.161Z,31.67
2023-06-18T05:52:44.182Z,31.66
2023-06-18T05:53:14.181Z,31.67
2023-06-18T05:53:44.196Z,31.67
2023-06-18T05:54:14.211Z,31.68
2023-06-18T05:54:44.208Z,31.67
2023-06-18T05:55:14.214Z,31.67
2023-06-18T05:55:44.240Z,31.67
2023-06-18T05:56:14.219Z,31.67
2023-06-18T05:57:14.322Z,31.68
2023-06-18T05:57:44.313Z,31.68
2023-06-18T05:58:14.324Z,31.67
2023-06-18T05:58:44.340Z,31.68
2023-06-18T05:59:14.351Z,31.68
2023-06-18T05:59:44.363Z,31.67
2023-06-18T06:00:14.376Z,31.71
2023-06-18T06:00:44.388Z,31.71
2023-06-18T06:01:14.433Z,31.70
2023-06-18T06:01:44.456Z,31.68
2023-06-18T06:02:14.470Z,31.68
2023-06-18T06:02:44.542Z,31.70
2023-06-18T06:03:14.599Z,31.71
2023-06-18T06:03:44.626Z,31.70
2023-06-18T06:04:14.672Z,31.70
2023-06-18T06:04:46.714Z,31.71
2023-06-18T06:05:14.704Z,31.71
2023-06-18T06:05:44.696Z,31.74
2023-06-18T06:06:14.736Z,31.77
2023-06-18T06:06:44.730Z,31.77
2023-06-18T06:07:14.732Z,31.74
2023-06-18T06:07:44.739Z,31.73
2023-06-18T06:08:14.748Z,31.78
2023-06-18T06:08:44.739Z,31.77
2023-06-18T06:09:44.829Z,31.77
2023-06-18T06:10:14.835Z,31.77
2023-06-18T06:10:44.857Z,31.75
2023-06-18T06:11:14.873Z,31.77
2023-06-18T06:12:14.942Z,31.75
2023-06-18T06:12:44.951Z,31.75
2023-06-18T06:13:14.945Z,31.75
2023-06-18T06:13:44.950Z,31.75
2023-06-18T06:14:14.956Z,31.77
2023-06-18T06:14:44.954Z,31.78
2023-06-18T06:15:14.956Z,31.80
2023-06-18T06:15:45.068Z,31.80
2023-06-18T06:16:15.227Z,31.81
2023-06-18T06:16:45.184Z,31.81
2023-06-18T06:17:15.188Z,31.81
2023-06-18T06:17:45.292Z,31.80
2023-06-18T06:18:16.877Z,31.83
2023-06-18T06:18:45.385Z,31.83
2023-06-18T06:19:15.472Z,31.81
2023-06-18T06:19:45.552Z,31.83
2023-06-18T06:20:15.653Z,31.80
2023-06-18T06:20:45.741Z,31.81
2023-06-18T06:21:15.830Z,31.81
2023-06-18T06:21:45.899Z,31.80
2023-06-18T06:22:15.981Z,31.80
2023-06-18T06:22:46.063Z,31.81
2023-06-18T06:23:16.160Z,31.81
2023-06-18T06:23:46.260Z,31.80
2023-06-18T06:24:16.395Z,31.80
2023-06-18T06:24:46.467Z,31.81
2023-06-18T06:25:16.458Z,31.78
2023-06-18T06:25:46.562Z,31.80
2023-06-18T06:26:16.605Z,31.81
2023-06-18T06:26:46.644Z,31.80
2023-06-18T06:27:16.637Z,31.80
2023-06-18T06:27:46.657Z,31.80
2023-06-18T06:28:16.660Z,31.78
2023-06-18T06:28:46.670Z,31.80
2023-06-18T06:29:16.680Z,31.83
2023-06-18T06:29:46.699Z,31.81
2023-06-18T06:30:16.697Z,31.81
2023-06-18T06:30:46.709Z,31.83
2023-06-18T06:31:16.715Z,31.81
2023-06-18T06:31:46.737Z,31.84
2023-06-18T06:32:16.770Z,31.83
2023-06-18T06:32:46.775Z,31.85
2023-06-18T06:33:16.772Z,31.84
2023-06-18T06:33:46.779Z,31.84
2023-06-18T06:34:16.792Z,31.85
2023-06-18T06:34:46.821Z,31.85
2023-06-18T06:35:16.818Z,31.87
2023-06-18T06:35:46.813Z,31.85
2023-06-18T06:36:16.820Z,31.91
2023-06-18T06:36:46.844Z,31.88
2023-06-18T06:37:16.835Z,31.89
2023-06-18T06:37:46.840Z,31.91
2023-06-18T06:38:16.870Z,31.88